Lake Thunderbird, Illinois
Current Conditions -  °F | °C
As of 3:35 AM on Friday 24 Oct 2014 (Local Time) from KC75 Reporting Station
Scattered Clouds Scattered Clouds  
Wind Chill: 45°   Ceiling: Unl
Heat Index: 45°   Visibility: 10mi
Dew Point: 42°   Wind: 0mph
Humidity: 90%   Direction: NA
Pressure: 30.05"   Gusts: NA
Location:  41.1888°N, 89.4469°W
Report Text: KC75 240835Z AUTO 00000KT 10SM SCT042 07/06 A3005 RMK AO2 T00740058
Loading
Personal Weather Stations






























Interactive Weather Map
Tropical Storm Tracking
New forecast layout! Learn more

10-Day Weather Forecast

Advertisements
Track Severe Weather on mobile